sensor_id;sensor_type;location;lat;lon;timestamp;temperature;humidity
29729;DHT22;20055;51.498;11.960;2023-07-31T00:00:46;17.90;99.90
29729;DHT22;20055;51.498;11.960;2023-07-31T00:03:12;17.90;99.90
29729;DHT22;20055;51.498;11.960;2023-07-31T00:05:38;17.90;99.90
29729;DHT22;20055;51.498;11.960;2023-07-31T00:08:04;18.00;99.90
29729;DHT22;20055;51.498;11.960;2023-07-31T00:10:31;17.90;99.90
29729;DHT22;20055;51.498;11.960;2023-07-31T00:12:57;17.90;99.90
29729;DHT22;20055;51.498;11.960;2023-07-31T00:15:23;17.80;99.90
29729;DHT22;20055;51.498;11.960;2023-07-31T00:17:50;17.90;99.90
29729;DHT22;20055;51.498;11.960;2023-07-31T00:20:16;17.80;99.90
29729;DHT22;20055;51.498;11.960;2023-07-31T00:22:42;18.00;99.90
29729;DHT22;20055;51.498;11.960;2023-07-31T00:25:08;18.00;99.90
29729;DHT22;20055;51.498;11.960;2023-07-31T00:27:35;18.10;99.90
29729;DHT22;20055;51.498;11.960;2023-07-31T00:30:01;18.20;99.90
29729;DHT22;20055;51.498;11.960;2023-07-31T00:32:27;18.30;99.90
29729;DHT22;20055;51.498;11.960;2023-07-31T00:34:53;18.30;99.90
29729;DHT22;20055;51.498;11.960;2023-07-31T00:37:20;18.40;99.90
29729;DHT22;20055;51.498;11.960;2023-07-31T00:39:46;18.30;99.90
29729;DHT22;20055;51.498;11.960;2023-07-31T00:42:12;18.40;99.90
29729;DHT22;20055;51.498;11.960;2023-07-31T00:44:38;18.50;99.90
29729;DHT22;20055;51.498;11.960;2023-07-31T00:47:05;18.40;99.90
29729;DHT22;20055;51.498;11.960;2023-07-31T00:49:31;18.40;99.90
29729;DHT22;20055;51.498;11.960;2023-07-31T00:51:59;18.40;99.90
29729;DHT22;20055;51.498;11.960;2023-07-31T00:54:25;18.40;99.90
29729;DHT22;20055;51.498;11.960;2023-07-31T00:56:53;18.40;99.90
29729;DHT22;20055;51.498;11.960;2023-07-31T00:59:21;18.30;99.90
29729;DHT22;20055;51.498;11.960;2023-07-31T01:01:48;18.30;99.90
29729;DHT22;20055;51.498;11.960;2023-07-31T01:04:14;18.30;99.90
29729;DHT22;20055;51.498;11.960;2023-07-31T01:07:02;18.40;99.90
29729;DHT22;20055;51.498;11.960;2023-07-31T01:09:40;18.30;99.90
29729;DHT22;20055;51.498;11.960;2023-07-31T01:12:14;18.30;99.90
29729;DHT22;20055;51.498;11.960;2023-07-31T01:14:40;18.30;99.90
29729;DHT22;20055;51.498;11.960;2023-07-31T01:17:07;18.30;99.90
29729;DHT22;20055;51.498;11.960;2023-07-31T01:19:33;18.30;99.90
29729;DHT22;20055;51.498;11.960;2023-07-31T01:27:25;18.30;99.90
29729;DHT22;20055;51.498;11.960;2023-07-31T01:30:03;18.30;99.90
29729;DHT22;20055;51.498;11.960;2023-07-31T01:32:39;18.30;99.90
29729;DHT22;20055;51.498;11.960;2023-07-31T01:35:06;18.30;99.90
29729;DHT22;20055;51.498;11.960;2023-07-31T01:37:33;18.40;99.90
29729;DHT22;20055;51.498;11.960;2023-07-31T01:39:59;18.30;99.90
29729;DHT22;20055;51.498;11.960;2023-07-31T01:42:26;18.40;99.90
29729;DHT22;20055;51.498;11.960;2023-07-31T01:44:52;18.40;99.90
29729;DHT22;20055;51.498;11.960;2023-07-31T01:47:18;18.40;99.90
29729;DHT22;20055;51.498;11.960;2023-07-31T01:49:44;18.30;99.90
29729;DHT22;20055;51.498;11.960;2023-07-31T01:52:10;18.30;99.90
29729;DHT22;20055;51.498;11.960;2023-07-31T01:54:36;18.30;99.90
29729;DHT22;20055;51.498;11.960;2023-07-31T01:57:03;18.40;99.90
29729;DHT22;20055;51.498;11.960;2023-07-31T01:59:29;18.30;99.90
29729;DHT22;20055;51.498;11.960;2023-07-31T02:01:55;18.30;99.90
29729;DHT22;20055;51.498;11.960;2023-07-31T02:04:21;18.30;99.90
29729;DHT22;20055;51.498;11.960;2023-07-31T02:06:48;18.20;99.90
29729;DHT22;20055;51.498;11.960;2023-07-31T02:09:14;18.20;99.90
29729;DHT22;20055;51.498;11.960;2023-07-31T02:11:40;18.10;99.90
29729;DHT22;20055;51.498;11.960;2023-07-31T02:14:06;18.00;99.90
29729;DHT22;20055;51.498;11.960;2023-07-31T02:16:33;18.00;99.90
29729;DHT22;20055;51.498;11.960;2023-07-31T02:19:01;18.00;99.90
29729;DHT22;20055;51.498;11.960;2023-07-31T02:21:27;18.00;99.90
29729;DHT22;20055;51.498;11.960;2023-07-31T02:23:53;17.90;99.90
29729;DHT22;20055;51.498;11.960;2023-07-31T02:26:19;17.70;99.90
29729;DHT22;20055;51.498;11.960;2023-07-31T02:28:46;17.70;99.90
29729;DHT22;20055;51.498;11.960;2023-07-31T02:31:12;17.70;99.90
29729;DHT22;20055;51.498;11.960;2023-07-31T02:33:40;17.70;99.90
29729;DHT22;20055;51.498;11.960;2023-07-31T02:36:06;17.70;99.90
29729;DHT22;20055;51.498;11.960;2023-07-31T02:38:32;17.70;99.90
29729;DHT22;20055;51.498;11.960;2023-07-31T02:40:58;17.70;99.90
29729;DHT22;20055;51.498;11.960;2023-07-31T02:43:25;17.70;99.90
29729;DHT22;20055;51.498;11.960;2023-07-31T02:45:52;17.80;99.90
29729;DHT22;20055;51.498;11.960;2023-07-31T02:48:19;17.70;99.90
29729;DHT22;20055;51.498;11.960;2023-07-31T02:50:47;17.70;99.90
29729;DHT22;20055;51.498;11.960;2023-07-31T02:53:13;17.70;99.90
29729;DHT22;20055;51.498;11.960;2023-07-31T02:55:41;17.70;99.90
29729;DHT22;20055;51.498;11.960;2023-07-31T02:58:07;17.80;99.90
29729;DHT22;20055;51.498;11.960;2023-07-31T03:00:33;17.70;99.90
29729;DHT22;20055;51.498;11.960;2023-07-31T03:03:00;17.80;99.90
29729;DHT22;20055;51.498;11.960;2023-07-31T03:05:27;17.70;99.90
29729;DHT22;20055;51.498;11.960;2023-07-31T03:07:54;17.80;99.90
29729;DHT22;20055;51.498;11.960;2023-07-31T03:10:20;17.70;99.90
29729;DHT22;20055;51.498;11.960;2023-07-31T03:12:47;17.70;99.90
29729;DHT22;20055;51.498;11.960;2023-07-31T03:15:14;17.80;99.90
29729;DHT22;20055;51.498;11.960;2023-07-31T03:17:40;17.80;99.90
29729;DHT22;20055;51.498;11.960;2023-07-31T03:20:06;17.80;99.90
29729;DHT22;20055;51.498;11.960;2023-07-31T03:22:34;17.80;99.90
29729;DHT22;20055;51.498;11.960;2023-07-31T03:25:02;17.80;99.90
29729;DHT22;20055;51.498;11.960;2023-07-31T03:27:28;17.80;99.90
29729;DHT22;20055;51.498;11.960;2023-07-31T03:29:54;17.80;99.90
29729;DHT22;20055;51.498;11.960;2023-07-31T03:32:21;17.70;99.90
29729;DHT22;20055;51.498;11.960;2023-07-31T03:34:48;17.70;99.90
29729;DHT22;20055;51.498;11.960;2023-07-31T03:37:14;17.70;99.90
29729;DHT22;20055;51.498;11.960;2023-07-31T03:39:40;17.70;99.90
29729;DHT22;20055;51.498;11.960;2023-07-31T03:42:07;17.70;99.90
29729;DHT22;20055;51.498;11.960;2023-07-31T03:44:33;17.70;99.90
29729;DHT22;20055;51.498;11.960;2023-07-31T03:46:59;17.60;99.90
29729;DHT22;20055;51.498;11.960;2023-07-31T03:49:26;17.60;99.90
29729;DHT22;20055;51.498;11.960;2023-07-31T03:51:52;17.60;99.90
29729;DHT22;20055;51.498;11.960;2023-07-31T03:54:18;17.60;99.90
29729;DHT22;20055;51.498;11.960;2023-07-31T03:56:44;17.60;99.90
29729;DHT22;20055;51.498;11.960;2023-07-31T03:59:10;17.60;99.90
29729;DHT22;20055;51.498;11.960;2023-07-31T04:01:37;17.60;99.90
29729;DHT22;20055;51.498;11.960;2023-07-31T04:04:03;17.60;99.90
29729;DHT22;20055;51.498;11.960;2023-07-31T04:06:29;17.50;99.90
29729;DHT22;20055;51.498;11.960;2023-07-31T04:08:55;17.60;99.90
29729;DHT22;20055;51.498;11.960;2023-07-31T04:11:22;17.60;99.90
29729;DHT22;20055;51.498;11.960;2023-07-31T04:13:48;17.70;99.90
29729;DHT22;20055;51.498;11.960;2023-07-31T04:16:14;17.70;99.90
29729;DHT22;20055;51.498;11.960;2023-07-31T04:18:41;17.70;99.90
29729;DHT22;20055;51.498;11.960;2023-07-31T04:21:07;17.70;99.90
29729;DHT22;20055;51.498;11.960;2023-07-31T04:23:33;17.70;99.90
29729;DHT22;20055;51.498;11.960;2023-07-31T04:25:59;17.60;99.90
29729;DHT22;20055;51.498;11.960;2023-07-31T04:28:25;17.50;99.90
29729;DHT22;20055;51.498;11.960;2023-07-31T04:30:52;17.60;99.90
29729;DHT22;20055;51.498;11.960;2023-07-31T04:33:19;17.60;99.90
29729;DHT22;20055;51.498;11.960;2023-07-31T04:35:52;17.60;99.90
29729;DHT22;20055;51.498;11.960;2023-07-31T04:38:20;17.60;99.90
29729;DHT22;20055;51.498;11.960;2023-07-31T04:40:46;17.50;99.90
29729;DHT22;20055;51.498;11.960;2023-07-31T04:43:13;17.50;99.90
29729;DHT22;20055;51.498;11.960;2023-07-31T04:45:39;17.50;99.90
29729;DHT22;20055;51.498;11.960;2023-07-31T04:48:07;17.40;99.90
29729;DHT22;20055;51.498;11.960;2023-07-31T04:50:34;17.40;99.90
29729;DHT22;20055;51.498;11.960;2023-07-31T04:53:00;17.30;99.90
29729;DHT22;20055;51.498;11.960;2023-07-31T04:55:26;17.20;99.90
29729;DHT22;20055;51.498;11.960;2023-07-31T04:57:52;17.30;99.90
29729;DHT22;20055;51.498;11.960;2023-07-31T05:00:19;17.30;99.90
29729;DHT22;20055;51.498;11.960;2023-07-31T05:02:45;17.40;99.90
29729;DHT22;20055;51.498;11.960;2023-07-31T05:05:11;17.30;99.90
29729;DHT22;20055;51.498;11.960;2023-07-31T05:07:37;17.30;99.90
29729;DHT22;20055;51.498;11.960;2023-07-31T05:10:04;17.30;99.90
29729;DHT22;20055;51.498;11.960;2023-07-31T05:12:31;17.30;99.90
29729;DHT22;20055;51.498;11.960;2023-07-31T05:14:57;17.40;99.90
29729;DHT22;20055;51.498;11.960;2023-07-31T05:17:23;17.40;99.90
29729;DHT22;20055;51.498;11.960;2023-07-31T05:19:49;17.40;99.90
29729;DHT22;20055;51.498;11.960;2023-07-31T05:22:15;17.20;99.90
29729;DHT22;20055;51.498;11.960;2023-07-31T05:24:42;17.20;99.90
29729;DHT22;20055;51.498;11.960;2023-07-31T05:27:08;17.20;99.90
29729;DHT22;20055;51.498;11.960;2023-07-31T05:29:35;17.10;99.90
29729;DHT22;20055;51.498;11.960;2023-07-31T05:32:02;17.20;99.90
29729;DHT22;20055;51.498;11.960;2023-07-31T05:34:28;17.30;99.90
29729;DHT22;20055;51.498;11.960;2023-07-31T05:36:54;17.30;99.90
29729;DHT22;20055;51.498;11.960;2023-07-31T05:39:20;17.30;99.90
29729;DHT22;20055;51.498;11.960;2023-07-31T05:41:47;17.10;99.90
29729;DHT22;20055;51.498;11.960;2023-07-31T05:44:13;17.10;99.90
29729;DHT22;20055;51.498;11.960;2023-07-31T05:46:39;17.20;99.90
29729;DHT22;20055;51.498;11.960;2023-07-31T05:49:06;17.30;99.90
29729;DHT22;20055;51.498;11.960;2023-07-31T05:51:32;17.80;99.90
29729;DHT22;20055;51.498;11.960;2023-07-31T05:53:59;18.60;99.90
29729;DHT22;20055;51.498;11.960;2023-07-31T05:56:25;18.90;99.90
29729;DHT22;20055;51.498;11.960;2023-07-31T05:58:53;19.10;99.90
29729;DHT22;20055;51.498;11.960;2023-07-31T06:01:19;19.40;99.90
29729;DHT22;20055;51.498;11.960;2023-07-31T06:03:47;19.50;99.90
29729;DHT22;20055;51.498;11.960;2023-07-31T06:06:14;19.70;99.90
29729;DHT22;20055;51.498;11.960;2023-07-31T06:08:40;19.60;99.90
29729;DHT22;20055;51.498;11.960;2023-07-31T06:11:06;19.40;99.90
29729;DHT22;20055;51.498;11.960;2023-07-31T06:13:35;19.40;99.90
29729;DHT22;20055;51.498;11.960;2023-07-31T06:16:01;19.40;99.90
29729;DHT22;20055;51.498;11.960;2023-07-31T06:18:34;19.40;99.90
29729;DHT22;20055;51.498;11.960;2023-07-31T06:21:00;19.40;99.90
29729;DHT22;20055;51.498;11.960;2023-07-31T06:23:26;19.30;99.90
29729;DHT22;20055;51.498;11.960;2023-07-31T06:25:53;19.30;99.90
29729;DHT22;20055;51.498;11.960;2023-07-31T06:28:19;19.30;99.90
29729;DHT22;20055;51.498;11.960;2023-07-31T06:30:45;19.10;99.90
29729;DHT22;20055;51.498;11.960;2023-07-31T06:33:12;19.10;99.90
29729;DHT22;20055;51.498;11.960;2023-07-31T06:35:38;19.00;99.90
29729;DHT22;20055;51.498;11.960;2023-07-31T06:38:04;19.10;99.90
29729;DHT22;20055;51.498;11.960;2023-07-31T06:40:31;19.10;99.90
29729;DHT22;20055;51.498;11.960;2023-07-31T06:42:57;19.20;99.90
29729;DHT22;20055;51.498;11.960;2023-07-31T06:45:23;19.20;99.90
29729;DHT22;20055;51.498;11.960;2023-07-31T06:47:49;19.20;99.90
29729;DHT22;20055;51.498;11.960;2023-07-31T06:50:16;19.30;99.90
29729;DHT22;20055;51.498;11.960;2023-07-31T06:52:42;19.30;99.90
29729;DHT22;20055;51.498;11.960;2023-07-31T06:55:19;19.30;99.90
29729;DHT22;20055;51.498;11.960;2023-07-31T06:57:47;19.30;99.90
29729;DHT22;20055;51.498;11.960;2023-07-31T07:00:13;19.30;99.90
29729;DHT22;20055;51.498;11.960;2023-07-31T07:02:40;19.40;99.90
29729;DHT22;20055;51.498;11.960;2023-07-31T07:05:07;19.30;99.90
29729;DHT22;20055;51.498;11.960;2023-07-31T07:07:33;19.40;99.90
29729;DHT22;20055;51.498;11.960;2023-07-31T07:10:00;19.50;99.90
29729;DHT22;20055;51.498;11.960;2023-07-31T07:12:29;19.50;99.90
29729;DHT22;20055;51.498;11.960;2023-07-31T07:14:55;19.60;99.90
29729;DHT22;20055;51.498;11.960;2023-07-31T07:17:21;19.70;99.90
29729;DHT22;20055;51.498;11.960;2023-07-31T07:19:48;19.80;99.90
29729;DHT22;20055;51.498;11.960;2023-07-31T07:22:14;19.80;99.90
29729;DHT22;20055;51.498;11.960;2023-07-31T07:24:41;19.90;99.90
29729;DHT22;20055;51.498;11.960;2023-07-31T07:27:08;20.00;99.90
29729;DHT22;20055;51.498;11.960;2023-07-31T07:29:35;20.00;99.90
29729;DHT22;20055;51.498;11.960;2023-07-31T07:32:01;20.10;99.90
29729;DHT22;20055;51.498;11.960;2023-07-31T07:34:28;20.00;99.90
29729;DHT22;20055;51.498;11.960;2023-07-31T07:36:54;20.00;99.90
29729;DHT22;20055;51.498;11.960;2023-07-31T07:39:21;20.00;99.90
29729;DHT22;20055;51.498;11.960;2023-07-31T07:41:47;20.00;99.90
29729;DHT22;20055;51.498;11.960;2023-07-31T07:44:14;20.00;99.90
29729;DHT22;20055;51.498;11.960;2023-07-31T07:46:40;20.00;99.90
29729;DHT22;20055;51.498;11.960;2023-07-31T07:49:07;19.90;99.90
29729;DHT22;20055;51.498;11.960;2023-07-31T07:51:33;19.90;99.90
29729;DHT22;20055;51.498;11.960;2023-07-31T07:54:00;19.90;99.90
29729;DHT22;20055;51.498;11.960;2023-07-31T07:56:27;19.80;99.90
29729;DHT22;20055;51.498;11.960;2023-07-31T07:58:54;19.90;99.90
29729;DHT22;20055;51.498;11.960;2023-07-31T08:01:21;20.00;99.90
29729;DHT22;20055;51.498;11.960;2023-07-31T08:03:47;20.00;99.90
29729;DHT22;20055;51.498;11.960;2023-07-31T08:06:14;20.00;99.90
29729;DHT22;20055;51.498;11.960;2023-07-31T08:08:41;20.00;99.90
29729;DHT22;20055;51.498;11.960;2023-07-31T08:11:07;20.10;99.90
29729;DHT22;20055;51.498;11.960;2023-07-31T08:13:33;20.10;99.90
29729;DHT22;20055;51.498;11.960;2023-07-31T08:16:00;20.10;99.90
29729;DHT22;20055;51.498;11.960;2023-07-31T08:18:26;20.20;99.90
29729;DHT22;20055;51.498;11.960;2023-07-31T08:20:53;20.20;99.90
29729;DHT22;20055;51.498;11.960;2023-07-31T08:23:19;20.40;99.90
29729;DHT22;20055;51.498;11.960;2023-07-31T08:25:46;20.40;99.90
29729;DHT22;20055;51.498;11.960;2023-07-31T08:28:13;20.50;99.90
29729;DHT22;20055;51.498;11.960;2023-07-31T08:30:39;20.60;99.90
29729;DHT22;20055;51.498;11.960;2023-07-31T08:33:05;20.70;99.90
29729;DHT22;20055;51.498;11.960;2023-07-31T08:35:32;20.80;99.90
29729;DHT22;20055;51.498;11.960;2023-07-31T08:37:58;20.90;99.90
29729;DHT22;20055;51.498;11.960;2023-07-31T08:40:24;20.90;99.90
29729;DHT22;20055;51.498;11.960;2023-07-31T08:42:53;20.80;99.90
29729;DHT22;20055;51.498;11.960;2023-07-31T08:45:21;20.80;99.90
29729;DHT22;20055;51.498;11.960;2023-07-31T08:47:50;21.00;99.90
29729;DHT22;20055;51.498;11.960;2023-07-31T08:50:19;21.10;99.90
29729;DHT22;20055;51.498;11.960;2023-07-31T08:52:48;21.20;99.90
29729;DHT22;20055;51.498;11.960;2023-07-31T08:55:14;21.20;99.90
29729;DHT22;20055;51.498;11.960;2023-07-31T08:57:41;20.90;99.90
29729;DHT22;20055;51.498;11.960;2023-07-31T09:00:09;20.70;99.90
29729;DHT22;20055;51.498;11.960;2023-07-31T09:02:48;20.60;99.90
29729;DHT22;20055;51.498;11.960;2023-07-31T09:05:15;20.50;99.90
29729;DHT22;20055;51.498;11.960;2023-07-31T09:07:43;20.30;99.90
29729;DHT22;20055;51.498;11.960;2023-07-31T09:10:12;20.30;99.90
29729;DHT22;20055;51.498;11.960;2023-07-31T09:12:39;20.20;99.90
29729;DHT22;20055;51.498;11.960;2023-07-31T09:15:06;20.10;99.90
29729;DHT22;20055;51.498;11.960;2023-07-31T09:17:34;20.20;99.90
29729;DHT22;20055;51.498;11.960;2023-07-31T09:20:21;20.10;99.90
29729;DHT22;20055;51.498;11.960;2023-07-31T09:22:48;20.20;99.90
29729;DHT22;20055;51.498;11.960;2023-07-31T09:30:18;20.50;99.90
29729;DHT22;20055;51.498;11.960;2023-07-31T09:32:45;20.60;99.90
29729;DHT22;20055;51.498;11.960;2023-07-31T09:35:28;20.70;99.90
29729;DHT22;20055;51.498;11.960;2023-07-31T09:40:33;20.90;99.90
29729;DHT22;20055;51.498;11.960;2023-07-31T09:43:07;21.10;99.90
29729;DHT22;20055;51.498;11.960;2023-07-31T09:45:36;21.20;99.90
29729;DHT22;20055;51.498;11.960;2023-07-31T09:48:03;21.30;99.90
29729;DHT22;20055;51.498;11.960;2023-07-31T09:50:32;21.50;99.90
29729;DHT22;20055;51.498;11.960;2023-07-31T09:52:59;21.70;99.90
29729;DHT22;20055;51.498;11.960;2023-07-31T09:55:25;21.80;99.90
29729;DHT22;20055;51.498;11.960;2023-07-31T09:57:53;21.90;99.90
29729;DHT22;20055;51.498;11.960;2023-07-31T10:00:20;21.90;99.90
29729;DHT22;20055;51.498;11.960;2023-07-31T10:02:50;22.00;99.90
29729;DHT22;20055;51.498;11.960;2023-07-31T10:05:17;22.10;99.90
29729;DHT22;20055;51.498;11.960;2023-07-31T10:07:58;22.20;99.90
29729;DHT22;20055;51.498;11.960;2023-07-31T10:10:25;22.30;99.90
29729;DHT22;20055;51.498;11.960;2023-07-31T10:12:53;22.20;99.90
29729;DHT22;20055;51.498;11.960;2023-07-31T10:15:20;22.00;99.90
29729;DHT22;20055;51.498;11.960;2023-07-31T10:17:50;22.00;99.90
29729;DHT22;20055;51.498;11.960;2023-07-31T10:20:16;22.20;99.90
29729;DHT22;20055;51.498;11.960;2023-07-31T10:22:44;22.40;99.90
29729;DHT22;20055;51.498;11.960;2023-07-31T10:25:12;22.50;99.90
29729;DHT22;20055;51.498;11.960;2023-07-31T10:27:39;22.50;99.90
29729;DHT22;20055;51.498;11.960;2023-07-31T10:30:09;22.50;99.90
29729;DHT22;20055;51.498;11.960;2023-07-31T10:32:38;22.60;99.90
29729;DHT22;20055;51.498;11.960;2023-07-31T10:35:07;22.60;99.90
29729;DHT22;20055;51.498;11.960;2023-07-31T10:37:42;22.60;99.90
29729;DHT22;20055;51.498;11.960;2023-07-31T10:40:23;22.50;99.90
29729;DHT22;20055;51.498;11.960;2023-07-31T10:42:51;22.60;99.90
29729;DHT22;20055;51.498;11.960;2023-07-31T10:45:30;22.70;99.90
29729;DHT22;20055;51.498;11.960;2023-07-31T10:48:07;22.60;99.90
29729;DHT22;20055;51.498;11.960;2023-07-31T10:50:45;22.60;99.90
29729;DHT22;20055;51.498;11.960;2023-07-31T10:53:23;22.60;99.90
29729;DHT22;20055;51.498;11.960;2023-07-31T10:55:50;22.70;99.90
29729;DHT22;20055;51.498;11.960;2023-07-31T10:58:20;22.80;99.90
29729;DHT22;20055;51.498;11.960;2023-07-31T11:00:47;22.80;99.90
29729;DHT22;20055;51.498;11.960;2023-07-31T11:03:17;22.80;99.90
29729;DHT22;20055;51.498;11.960;2023-07-31T11:06:00;22.90;99.90
29729;DHT22;20055;51.498;11.960;2023-07-31T11:08:31;23.00;99.90
29729;DHT22;20055;51.498;11.960;2023-07-31T11:13:33;23.20;99.90
29729;DHT22;20055;51.498;11.960;2023-07-31T11:16:00;23.30;99.90
29729;DHT22;20055;51.498;11.960;2023-07-31T11:18:27;23.20;99.90
29729;DHT22;20055;51.498;11.960;2023-07-31T11:20:54;23.20;99.90
29729;DHT22;20055;51.498;11.960;2023-07-31T11:23:21;22.90;99.90
29729;DHT22;20055;51.498;11.960;2023-07-31T11:25:49;22.90;99.90
29729;DHT22;20055;51.498;11.960;2023-07-31T11:28:17;22.90;99.90
29729;DHT22;20055;51.498;11.960;2023-07-31T11:30:44;22.70;99.90
29729;DHT22;20055;51.498;11.960;2023-07-31T11:33:13;22.70;99.90
29729;DHT22;20055;51.498;11.960;2023-07-31T11:35:47;22.70;99.90
29729;DHT22;20055;51.498;11.960;2023-07-31T11:38:26;22.90;99.90
29729;DHT22;20055;51.498;11.960;2023-07-31T11:40:54;23.10;99.90
29729;DHT22;20055;51.498;11.960;2023-07-31T11:43:21;23.00;99.90
29729;DHT22;20055;51.498;11.960;2023-07-31T11:45:52;22.80;99.90
29729;DHT22;20055;51.498;11.960;2023-07-31T11:48:37;22.70;99.90
29729;DHT22;20055;51.498;11.960;2023-07-31T11:51:08;22.70;99.90
29729;DHT22;20055;51.498;11.960;2023-07-31T11:53:45;22.70;99.90
29729;DHT22;20055;51.498;11.960;2023-07-31T11:56:14;22.60;99.90
29729;DHT22;20055;51.498;11.960;2023-07-31T11:58:43;22.50;99.90
29729;DHT22;20055;51.498;11.960;2023-07-31T12:01:10;22.50;99.90
29729;DHT22;20055;51.498;11.960;2023-07-31T12:03:37;22.60;99.90
29729;DHT22;20055;51.498;11.960;2023-07-31T12:06:04;22.70;99.90
29729;DHT22;20055;51.498;11.960;2023-07-31T12:08:30;22.90;99.90
29729;DHT22;20055;51.498;11.960;2023-07-31T12:11:09;23.10;99.90
29729;DHT22;20055;51.498;11.960;2023-07-31T12:13:35;23.10;99.90
29729;DHT22;20055;51.498;11.960;2023-07-31T12:16:03;23.10;99.90
29729;DHT22;20055;51.498;11.960;2023-07-31T12:18:34;23.10;99.90
29729;DHT22;20055;51.498;11.960;2023-07-31T12:21:02;23.20;99.90
29729;DHT22;20055;51.498;11.960;2023-07-31T12:23:31;23.20;99.90
29729;DHT22;20055;51.498;11.960;2023-07-31T12:26:07;23.30;99.90
29729;DHT22;20055;51.498;11.960;2023-07-31T12:31:07;23.60;99.90
29729;DHT22;20055;51.498;11.960;2023-07-31T12:33:35;23.70;99.90
29729;DHT22;20055;51.498;11.960;2023-07-31T12:36:03;23.80;99.90
29729;DHT22;20055;51.498;11.960;2023-07-31T12:38:30;23.50;99.90
29729;DHT22;20055;51.498;11.960;2023-07-31T12:40:57;23.50;99.90
29729;DHT22;20055;51.498;11.960;2023-07-31T12:43:23;23.70;99.90
29729;DHT22;20055;51.498;11.960;2023-07-31T12:45:49;23.80;99.90
29729;DHT22;20055;51.498;11.960;2023-07-31T12:48:15;23.80;99.90
29729;DHT22;20055;51.498;11.960;2023-07-31T12:50:42;23.80;99.90
29729;DHT22;20055;51.498;11.960;2023-07-31T12:53:08;23.70;99.90
29729;DHT22;20055;51.498;11.960;2023-07-31T12:55:34;23.50;99.90
29729;DHT22;20055;51.498;11.960;2023-07-31T12:58:03;23.30;99.90
29729;DHT22;20055;51.498;11.960;2023-07-31T13:00:29;23.10;99.90
29729;DHT22;20055;51.498;11.960;2023-07-31T13:02:55;23.20;99.90
29729;DHT22;20055;51.498;11.960;2023-07-31T13:05:22;23.30;99.90
29729;DHT22;20055;51.498;11.960;2023-07-31T13:07:48;23.50;99.90
29729;DHT22;20055;51.498;11.960;2023-07-31T13:10:15;23.50;99.90
29729;DHT22;20055;51.498;11.960;2023-07-31T13:12:41;23.60;99.90
29729;DHT22;20055;51.498;11.960;2023-07-31T13:15:07;23.70;99.90
29729;DHT22;20055;51.498;11.960;2023-07-31T13:17:35;23.80;99.90
29729;DHT22;20055;51.498;11.960;2023-07-31T13:20:02;23.80;99.90
29729;DHT22;20055;51.498;11.960;2023-07-31T13:22:29;23.50;99.90
29729;DHT22;20055;51.498;11.960;2023-07-31T13:24:56;23.30;99.90
29729;DHT22;20055;51.498;11.960;2023-07-31T13:27:22;23.20;99.90
29729;DHT22;20055;51.498;11.960;2023-07-31T13:29:50;23.10;99.90
29729;DHT22;20055;51.498;11.960;2023-07-31T13:32:17;23.00;99.90
29729;DHT22;20055;51.498;11.960;2023-07-31T13:34:46;22.90;99.90
29729;DHT22;20055;51.498;11.960;2023-07-31T13:37:13;23.00;99.90
29729;DHT22;20055;51.498;11.960;2023-07-31T13:39:40;23.00;99.90
29729;DHT22;20055;51.498;11.960;2023-07-31T13:42:07;23.00;99.90
29729;DHT22;20055;51.498;11.960;2023-07-31T13:44:34;22.90;99.90
29729;DHT22;20055;51.498;11.960;2023-07-31T13:47:01;23.00;99.90
29729;DHT22;20055;51.498;11.960;2023-07-31T13:49:28;23.00;99.90
29729;DHT22;20055;51.498;11.960;2023-07-31T13:51:54;23.00;99.90
29729;DHT22;20055;51.498;11.960;2023-07-31T13:54:22;23.20;99.90
29729;DHT22;20055;51.498;11.960;2023-07-31T13:56:49;23.40;99.90
29729;DHT22;20055;51.498;11.960;2023-07-31T13:59:15;23.20;99.90
29729;DHT22;20055;51.498;11.960;2023-07-31T14:01:45;23.20;99.90
29729;DHT22;20055;51.498;11.960;2023-07-31T14:04:11;23.30;99.90
29729;DHT22;20055;51.498;11.960;2023-07-31T14:06:38;23.40;99.90
29729;DHT22;20055;51.498;11.960;2023-07-31T14:09:05;23.60;99.90
29729;DHT22;20055;51.498;11.960;2023-07-31T14:11:31;23.50;99.90
29729;DHT22;20055;51.498;11.960;2023-07-31T14:13:57;23.40;99.90
29729;DHT22;20055;51.498;11.960;2023-07-31T14:16:24;23.20;99.90
29729;DHT22;20055;51.498;11.960;2023-07-31T14:18:50;23.00;99.90
29729;DHT22;20055;51.498;11.960;2023-07-31T14:21:16;23.00;99.90
29729;DHT22;20055;51.498;11.960;2023-07-31T14:23:45;23.00;99.90
29729;DHT22;20055;51.498;11.960;2023-07-31T14:26:12;23.00;99.90
29729;DHT22;20055;51.498;11.960;2023-07-31T14:28:38;22.80;99.90
29729;DHT22;20055;51.498;11.960;2023-07-31T14:31:04;22.70;99.90
29729;DHT22;20055;51.498;11.960;2023-07-31T14:33:31;22.60;99.90
29729;DHT22;20055;51.498;11.960;2023-07-31T14:35:57;22.50;99.90
29729;DHT22;20055;51.498;11.960;2023-07-31T14:38:23;22.50;99.90
29729;DHT22;20055;51.498;11.960;2023-07-31T14:40:49;22.60;99.90
29729;DHT22;20055;51.498;11.960;2023-07-31T14:43:16;22.60;99.90
29729;DHT22;20055;51.498;11.960;2023-07-31T14:45:42;22.70;99.90
29729;DHT22;20055;51.498;11.960;2023-07-31T14:48:09;22.90;99.90
29729;DHT22;20055;51.498;11.960;2023-07-31T14:50:35;22.80;99.90
29729;DHT22;20055;51.498;11.960;2023-07-31T14:53:01;22.80;99.90
29729;DHT22;20055;51.498;11.960;2023-07-31T14:55:28;22.80;99.90
29729;DHT22;20055;51.498;11.960;2023-07-31T14:57:54;22.90;99.90
29729;DHT22;20055;51.498;11.960;2023-07-31T15:00:20;22.90;99.90
29729;DHT22;20055;51.498;11.960;2023-07-31T15:02:47;22.90;99.90
29729;DHT22;20055;51.498;11.960;2023-07-31T15:05:13;22.70;99.90
29729;DHT22;20055;51.498;11.960;2023-07-31T15:07:39;22.60;99.90
29729;DHT22;20055;51.498;11.960;2023-07-31T15:10:06;22.60;99.90
29729;DHT22;20055;51.498;11.960;2023-07-31T15:12:33;22.70;99.90
29729;DHT22;20055;51.498;11.960;2023-07-31T15:14:59;22.80;99.90
29729;DHT22;20055;51.498;11.960;2023-07-31T15:17:25;22.80;99.90
29729;DHT22;20055;51.498;11.960;2023-07-31T15:19:51;22.80;99.90
29729;DHT22;20055;51.498;11.960;2023-07-31T15:22:18;22.60;99.90
29729;DHT22;20055;51.498;11.960;2023-07-31T15:24:44;22.30;99.90
29729;DHT22;20055;51.498;11.960;2023-07-31T15:27:10;22.20;99.90
29729;DHT22;20055;51.498;11.960;2023-07-31T15:29:36;22.20;99.90
29729;DHT22;20055;51.498;11.960;2023-07-31T15:32:04;22.10;99.90
29729;DHT22;20055;51.498;11.960;2023-07-31T15:34:31;22.20;99.90